Portada
METAR-TAF:

METAR-TAF

Aeroports :

Brač, Croàcia

latitud: 43-17-09N, longitud: 016-40-47E, altitud: 541 m

METAR: manca

Hora: 02:24 (00:24 UTC)

Pronòstic

L'informe es va fer fa 12 hores i 59 minuts, a les 11:25 UTC
Pronòstic vàlid del 17 a les 12 UTC al 18 a les 12 UTC
Vent 8 kt del Sud-Oest
Visibilitat 10 km o més
sense núvols per sota de 1500 mi sense presència de cumulonimbus.
Evolucionant progressivament
l' 17 a les 12 UTC al 17 a les 14 UTC
Vent 12 kt del Oest/Nord-Oest
Evolucionant progressivament
l' 17 a les 19 UTC al 17 a les 21 UTC
Vent 5 kt del Nord-Est
Temporalment
l' 18 a les 03 UTC al 18 a les 07 UTC
Vent 12 kt del Nord/Nord-Est
Evolucionant progressivament
l' 18 a les 08 UTC al 18 a les 10 UTC
Vent 8 kt del Sud/Sud-Oest

TAF: LDSB 171125Z 1712/1812 22008KT CAVOK TX35/1712Z TN25/1802Z BECMG 1712/1714 30012KT BECMG 1719/1721 04005KT TEMPO 1803/1807 02012KT BECMG 1808/1810 20008KT

Observacions i pronòstics meteorològics de més de 4000 aeroports (METAR i TAF).

Les estacions disponibles són els punts grocs i vermells al mapa.

Posi el ratolí al punt desitjat per veure el nom de l'estació.

Feu clic per veure les observacions i els pronòstics meteorològics.

Per canviar el mapa: feu clic els botons verds amb una creu de color negre per apropar; al botó verd amb un guió per allunyar la imatge; o en les fletxes verdes per a mapes adjacents.


METAR-TAF: